sensor_id;sensor_type;location;lat;lon;timestamp;P1;durP1;ratioP1;P2;durP2;ratioP2
58982;SDS011;44771;49.982;8.560;2023-03-01T00:04:51;33.05;;;22.25;;
58982;SDS011;44771;49.982;8.560;2023-03-01T00:09:53;35.33;;;23.35;;
58982;SDS011;44771;49.982;8.560;2023-03-01T00:14:55;32.05;;;23.67;;
58982;SDS011;44771;49.982;8.560;2023-03-01T00:19:58;28.50;;;23.25;;
58982;SDS011;44771;49.982;8.560;2023-03-01T00:24:59;36.03;;;24.70;;
58982;SDS011;44771;49.982;8.560;2023-03-01T00:30:01;31.50;;;24.20;;
58982;SDS011;44771;49.982;8.560;2023-03-01T00:35:05;35.55;;;24.40;;
58982;SDS011;44771;49.982;8.560;2023-03-01T00:40:07;27.37;;;22.60;;
58982;SDS011;44771;49.982;8.560;2023-03-01T00:45:10;29.90;;;23.83;;
58982;SDS011;44771;49.982;8.560;2023-03-01T00:50:13;29.55;;;23.42;;
58982;SDS011;44771;49.982;8.560;2023-03-01T00:55:15;30.57;;;24.13;;
58982;SDS011;44771;49.982;8.560;2023-03-01T01:00:17;35.95;;;24.70;;
58982;SDS011;44771;49.982;8.560;2023-03-01T01:05:21;30.17;;;22.90;;
58982;SDS011;44771;49.982;8.560;2023-03-01T01:10:23;31.92;;;23.98;;
58982;SDS011;44771;49.982;8.560;2023-03-01T01:15:25;34.58;;;23.60;;
58982;SDS011;44771;49.982;8.560;2023-03-01T01:20:28;33.00;;;24.33;;
58982;SDS011;44771;49.982;8.560;2023-03-01T01:25:30;29.07;;;22.40;;
58982;SDS011;44771;49.982;8.560;2023-03-01T01:30:35;31.60;;;23.33;;
58982;SDS011;44771;49.982;8.560;2023-03-01T01:35:38;34.67;;;22.90;;
58982;SDS011;44771;49.982;8.560;2023-03-01T01:40:43;35.95;;;23.70;;
58982;SDS011;44771;49.982;8.560;2023-03-01T01:45:45;30.70;;;22.60;;
58982;SDS011;44771;49.982;8.560;2023-03-01T01:50:50;32.63;;;24.17;;
58982;SDS011;44771;49.982;8.560;2023-03-01T01:55:57;30.58;;;22.50;;
58982;SDS011;44771;49.982;8.560;2023-03-01T02:01:02;35.67;;;23.62;;
58982;SDS011;44771;49.982;8.560;2023-03-01T02:06:10;35.53;;;24.77;;
58982;SDS011;44771;49.982;8.560;2023-03-01T02:11:13;33.72;;;23.42;;
58982;SDS011;44771;49.982;8.560;2023-03-01T02:16:16;32.72;;;23.92;;
58982;SDS011;44771;49.982;8.560;2023-03-01T02:21:24;33.25;;;24.12;;
58982;SDS011;44771;49.982;8.560;2023-03-01T02:26:40;35.08;;;24.23;;
58982;SDS011;44771;49.982;8.560;2023-03-01T02:31:45;32.97;;;24.52;;
58982;SDS011;44771;49.982;8.560;2023-03-01T02:36:47;32.05;;;24.37;;
58982;SDS011;44771;49.982;8.560;2023-03-01T02:41:52;34.35;;;24.77;;
58982;SDS011;44771;49.982;8.560;2023-03-01T02:46:57;35.10;;;25.33;;
58982;SDS011;44771;49.982;8.560;2023-03-01T02:57:41;35.63;;;25.25;;
58982;SDS011;44771;49.982;8.560;2023-03-01T03:02:46;37.80;;;25.13;;
58982;SDS011;44771;49.982;8.560;2023-03-01T03:07:49;33.75;;;26.27;;
58982;SDS011;44771;49.982;8.560;2023-03-01T03:12:52;37.65;;;22.52;;
58982;SDS011;44771;49.982;8.560;2023-03-01T03:17:57;33.08;;;23.40;;
58982;SDS011;44771;49.982;8.560;2023-03-01T03:22:59;36.97;;;24.90;;
58982;SDS011;44771;49.982;8.560;2023-03-01T03:28:02;35.28;;;25.40;;
58982;SDS011;44771;49.982;8.560;2023-03-01T03:33:06;36.75;;;26.77;;
58982;SDS011;44771;49.982;8.560;2023-03-01T03:38:09;34.47;;;24.85;;
58982;SDS011;44771;49.982;8.560;2023-03-01T03:43:13;37.42;;;25.37;;
58982;SDS011;44771;49.982;8.560;2023-03-01T03:48:19;33.90;;;25.35;;
58982;SDS011;44771;49.982;8.560;2023-03-01T03:53:22;37.88;;;26.33;;
58982;SDS011;44771;49.982;8.560;2023-03-01T03:58:25;37.30;;;25.85;;
58982;SDS011;44771;49.982;8.560;2023-03-01T04:03:29;38.20;;;26.30;;
58982;SDS011;44771;49.982;8.560;2023-03-01T04:08:32;37.40;;;25.33;;
58982;SDS011;44771;49.982;8.560;2023-03-01T04:13:33;36.30;;;26.45;;
58982;SDS011;44771;49.982;8.560;2023-03-01T04:18:36;35.38;;;24.15;;
58982;SDS011;44771;49.982;8.560;2023-03-01T04:23:38;38.60;;;26.52;;
58982;SDS011;44771;49.982;8.560;2023-03-01T04:28:41;39.25;;;26.00;;
58982;SDS011;44771;49.982;8.560;2023-03-01T04:33:46;43.80;;;27.60;;
58982;SDS011;44771;49.982;8.560;2023-03-01T04:38:49;36.53;;;26.87;;
58982;SDS011;44771;49.982;8.560;2023-03-01T04:43:51;41.80;;;26.33;;
58982;SDS011;44771;49.982;8.560;2023-03-01T04:48:54;49.42;;;27.92;;
58982;SDS011;44771;49.982;8.560;2023-03-01T04:53:56;38.85;;;26.15;;
58982;SDS011;44771;49.982;8.560;2023-03-01T04:58:58;36.90;;;25.75;;
58982;SDS011;44771;49.982;8.560;2023-03-01T05:04:01;40.20;;;27.62;;
58982;SDS011;44771;49.982;8.560;2023-03-01T05:09:03;38.35;;;25.65;;
58982;SDS011;44771;49.982;8.560;2023-03-01T05:14:05;36.58;;;27.27;;
58982;SDS011;44771;49.982;8.560;2023-03-01T05:19:09;42.53;;;27.70;;
58982;SDS011;44771;49.982;8.560;2023-03-01T05:24:11;40.85;;;26.58;;
58982;SDS011;44771;49.982;8.560;2023-03-01T05:29:12;42.92;;;27.67;;
58982;SDS011;44771;49.982;8.560;2023-03-01T05:34:15;44.30;;;27.58;;
58982;SDS011;44771;49.982;8.560;2023-03-01T05:39:17;40.00;;;25.52;;
58982;SDS011;44771;49.982;8.560;2023-03-01T05:44:20;42.78;;;26.65;;
58982;SDS011;44771;49.982;8.560;2023-03-01T05:49:23;47.10;;;28.08;;
58982;SDS011;44771;49.982;8.560;2023-03-01T05:54:25;41.83;;;26.45;;
58982;SDS011;44771;49.982;8.560;2023-03-01T05:59:27;42.47;;;26.73;;
58982;SDS011;44771;49.982;8.560;2023-03-01T06:04:31;44.47;;;28.23;;
58982;SDS011;44771;49.982;8.560;2023-03-01T06:09:32;43.85;;;26.27;;
58982;SDS011;44771;49.982;8.560;2023-03-01T06:14:34;37.45;;;25.90;;
58982;SDS011;44771;49.982;8.560;2023-03-01T06:19:37;45.00;;;26.23;;
58982;SDS011;44771;49.982;8.560;2023-03-01T06:24:39;40.15;;;26.15;;
58982;SDS011;44771;49.982;8.560;2023-03-01T06:29:41;48.35;;;27.05;;
58982;SDS011;44771;49.982;8.560;2023-03-01T06:34:44;40.38;;;26.37;;
58982;SDS011;44771;49.982;8.560;2023-03-01T06:39:46;48.65;;;26.25;;
58982;SDS011;44771;49.982;8.560;2023-03-01T06:44:47;43.65;;;26.65;;
58982;SDS011;44771;49.982;8.560;2023-03-01T06:49:50;41.35;;;27.48;;
58982;SDS011;44771;49.982;8.560;2023-03-01T06:54:52;43.75;;;26.30;;
58982;SDS011;44771;49.982;8.560;2023-03-01T06:59:54;38.92;;;26.23;;
58982;SDS011;44771;49.982;8.560;2023-03-01T07:04:57;42.47;;;25.92;;
58982;SDS011;44771;49.982;8.560;2023-03-01T07:09:59;41.55;;;26.42;;
58982;SDS011;44771;49.982;8.560;2023-03-01T07:15:00;47.05;;;28.27;;
58982;SDS011;44771;49.982;8.560;2023-03-01T07:20:04;37.03;;;25.25;;
58982;SDS011;44771;49.982;8.560;2023-03-01T07:25:06;41.03;;;26.67;;
58982;SDS011;44771;49.982;8.560;2023-03-01T07:30:09;41.83;;;26.70;;
58982;SDS011;44771;49.982;8.560;2023-03-01T07:35:13;42.45;;;26.05;;
58982;SDS011;44771;49.982;8.560;2023-03-01T07:40:15;35.67;;;26.15;;
58982;SDS011;44771;49.982;8.560;2023-03-01T07:45:17;40.92;;;26.35;;
58982;SDS011;44771;49.982;8.560;2023-03-01T07:50:20;45.55;;;27.83;;
58982;SDS011;44771;49.982;8.560;2023-03-01T07:55:22;43.67;;;26.87;;
58982;SDS011;44771;49.982;8.560;2023-03-01T08:00:24;38.85;;;25.15;;
58982;SDS011;44771;49.982;8.560;2023-03-01T08:05:27;43.03;;;26.87;;
58982;SDS011;44771;49.982;8.560;2023-03-01T08:10:29;40.27;;;28.73;;
58982;SDS011;44771;49.982;8.560;2023-03-01T08:15:31;40.63;;;27.50;;
58982;SDS011;44771;49.982;8.560;2023-03-01T08:20:34;47.62;;;26.87;;
58982;SDS011;44771;49.982;8.560;2023-03-01T08:25:36;35.55;;;25.98;;
58982;SDS011;44771;49.982;8.560;2023-03-01T08:30:37;35.15;;;25.48;;
58982;SDS011;44771;49.982;8.560;2023-03-01T08:35:41;39.53;;;26.42;;
58982;SDS011;44771;49.982;8.560;2023-03-01T08:40:42;34.75;;;24.65;;
58982;SDS011;44771;49.982;8.560;2023-03-01T08:45:44;38.50;;;24.73;;
58982;SDS011;44771;49.982;8.560;2023-03-01T08:50:47;37.47;;;26.67;;
58982;SDS011;44771;49.982;8.560;2023-03-01T08:55:49;43.47;;;26.37;;
58982;SDS011;44771;49.982;8.560;2023-03-01T09:00:51;34.97;;;26.02;;
58982;SDS011;44771;49.982;8.560;2023-03-01T09:05:54;40.50;;;26.23;;
58982;SDS011;44771;49.982;8.560;2023-03-01T09:11:01;38.85;;;25.23;;
58982;SDS011;44771;49.982;8.560;2023-03-01T09:16:04;39.80;;;25.62;;
58982;SDS011;44771;49.982;8.560;2023-03-01T09:21:10;37.75;;;25.90;;
58982;SDS011;44771;49.982;8.560;2023-03-01T09:26:14;37.10;;;26.83;;
58982;SDS011;44771;49.982;8.560;2023-03-01T09:31:18;35.53;;;26.63;;
58982;SDS011;44771;49.982;8.560;2023-03-01T09:36:23;34.75;;;25.05;;
58982;SDS011;44771;49.982;8.560;2023-03-01T09:41:36;32.92;;;25.17;;
58982;SDS011;44771;49.982;8.560;2023-03-01T09:46:45;40.78;;;26.15;;
58982;SDS011;44771;49.982;8.560;2023-03-01T09:51:57;37.10;;;25.85;;
58982;SDS011;44771;49.982;8.560;2023-03-01T09:57:06;33.17;;;25.02;;
58982;SDS011;44771;49.982;8.560;2023-03-01T10:02:23;35.60;;;26.20;;
58982;SDS011;44771;49.982;8.560;2023-03-01T10:07:36;34.95;;;25.95;;
58982;SDS011;44771;49.982;8.560;2023-03-01T10:12:43;37.13;;;25.30;;
58982;SDS011;44771;49.982;8.560;2023-03-01T10:17:50;33.55;;;25.23;;
58982;SDS011;44771;49.982;8.560;2023-03-01T10:22:58;31.37;;;25.05;;
58982;SDS011;44771;49.982;8.560;2023-03-01T10:28:04;35.55;;;25.70;;
58982;SDS011;44771;49.982;8.560;2023-03-01T10:33:13;38.40;;;25.60;;
58982;SDS011;44771;49.982;8.560;2023-03-01T10:38:20;37.92;;;24.67;;
58982;SDS011;44771;49.982;8.560;2023-03-01T10:43:22;39.75;;;25.88;;
58982;SDS011;44771;49.982;8.560;2023-03-01T10:48:26;39.70;;;26.75;;
58982;SDS011;44771;49.982;8.560;2023-03-01T10:53:30;38.25;;;25.83;;
58982;SDS011;44771;49.982;8.560;2023-03-01T10:58:35;34.40;;;23.58;;
58982;SDS011;44771;49.982;8.560;2023-03-01T11:03:39;30.88;;;24.23;;
58982;SDS011;44771;49.982;8.560;2023-03-01T11:08:42;34.00;;;24.73;;
58982;SDS011;44771;49.982;8.560;2023-03-01T11:13:47;32.85;;;25.95;;
58982;SDS011;44771;49.982;8.560;2023-03-01T11:18:56;35.20;;;25.08;;
58982;SDS011;44771;49.982;8.560;2023-03-01T11:24:01;32.85;;;24.87;;
58982;SDS011;44771;49.982;8.560;2023-03-01T11:29:06;34.15;;;26.30;;
58982;SDS011;44771;49.982;8.560;2023-03-01T11:34:14;31.85;;;23.87;;
58982;SDS011;44771;49.982;8.560;2023-03-01T11:39:26;32.75;;;24.48;;
58982;SDS011;44771;49.982;8.560;2023-03-01T11:44:33;33.05;;;24.42;;
58982;SDS011;44771;49.982;8.560;2023-03-01T11:49:48;36.20;;;24.67;;
58982;SDS011;44771;49.982;8.560;2023-03-01T11:55:07;32.20;;;24.48;;
58982;SDS011;44771;49.982;8.560;2023-03-01T12:00:23;31.23;;;24.12;;
58982;SDS011;44771;49.982;8.560;2023-03-01T12:11:19;24.85;;;21.55;;
58982;SDS011;44771;49.982;8.560;2023-03-01T12:16:35;30.05;;;23.05;;
58982;SDS011;44771;49.982;8.560;2023-03-01T12:27:40;24.90;;;21.42;;
58982;SDS011;44771;49.982;8.560;2023-03-01T12:32:52;24.83;;;21.27;;
58982;SDS011;44771;49.982;8.560;2023-03-01T12:43:16;23.87;;;19.25;;
58982;SDS011;44771;49.982;8.560;2023-03-01T12:48:31;26.05;;;20.83;;
58982;SDS011;44771;49.982;8.560;2023-03-01T12:53:41;24.35;;;21.40;;
58982;SDS011;44771;49.982;8.560;2023-03-01T12:58:51;23.92;;;21.40;;
58982;SDS011;44771;49.982;8.560;2023-03-01T13:04:03;24.63;;;21.02;;
58982;SDS011;44771;49.982;8.560;2023-03-01T13:09:22;24.45;;;21.67;;
58982;SDS011;44771;49.982;8.560;2023-03-01T13:14:39;23.52;;;20.12;;
58982;SDS011;44771;49.982;8.560;2023-03-01T13:19:54;24.10;;;21.25;;
58982;SDS011;44771;49.982;8.560;2023-03-01T13:25:02;23.73;;;20.50;;
58982;SDS011;44771;49.982;8.560;2023-03-01T13:35:43;23.48;;;20.90;;
58982;SDS011;44771;49.982;8.560;2023-03-01T13:40:58;24.63;;;19.70;;
58982;SDS011;44771;49.982;8.560;2023-03-01T13:46:07;22.42;;;19.87;;
58982;SDS011;44771;49.982;8.560;2023-03-01T13:51:11;21.45;;;18.87;;
58982;SDS011;44771;49.982;8.560;2023-03-01T13:56:14;24.55;;;18.52;;
58982;SDS011;44771;49.982;8.560;2023-03-01T14:01:24;24.23;;;19.65;;
58982;SDS011;44771;49.982;8.560;2023-03-01T14:06:29;25.80;;;20.08;;
58982;SDS011;44771;49.982;8.560;2023-03-01T14:17:04;23.15;;;19.48;;
58982;SDS011;44771;49.982;8.560;2023-03-01T14:22:19;30.23;;;20.27;;
58982;SDS011;44771;49.982;8.560;2023-03-01T14:27:23;24.80;;;19.77;;
58982;SDS011;44771;49.982;8.560;2023-03-01T14:32:29;24.83;;;19.97;;
58982;SDS011;44771;49.982;8.560;2023-03-01T14:37:33;29.23;;;22.87;;
58982;SDS011;44771;49.982;8.560;2023-03-01T14:42:35;22.17;;;19.73;;
58982;SDS011;44771;49.982;8.560;2023-03-01T14:47:39;26.23;;;19.65;;
58982;SDS011;44771;49.982;8.560;2023-03-01T14:52:45;22.20;;;19.58;;
58982;SDS011;44771;49.982;8.560;2023-03-01T14:57:49;22.95;;;19.20;;
58982;SDS011;44771;49.982;8.560;2023-03-01T15:02:54;24.33;;;19.45;;
58982;SDS011;44771;49.982;8.560;2023-03-01T15:07:57;23.65;;;20.20;;
58982;SDS011;44771;49.982;8.560;2023-03-01T15:13:10;22.13;;;19.75;;
58982;SDS011;44771;49.982;8.560;2023-03-01T15:18:16;21.05;;;18.50;;
58982;SDS011;44771;49.982;8.560;2023-03-01T15:23:20;23.92;;;19.73;;
58982;SDS011;44771;49.982;8.560;2023-03-01T15:28:25;25.62;;;21.73;;
58982;SDS011;44771;49.982;8.560;2023-03-01T15:33:32;27.20;;;20.85;;
58982;SDS011;44771;49.982;8.560;2023-03-01T15:38:49;26.77;;;20.25;;
58982;SDS011;44771;49.982;8.560;2023-03-01T15:43:53;24.85;;;20.73;;
58982;SDS011;44771;49.982;8.560;2023-03-01T15:48:58;26.25;;;21.00;;
58982;SDS011;44771;49.982;8.560;2023-03-01T15:54:04;22.62;;;20.00;;
58982;SDS011;44771;49.982;8.560;2023-03-01T15:59:08;23.15;;;20.67;;
58982;SDS011;44771;49.982;8.560;2023-03-01T16:04:13;26.05;;;19.75;;
58982;SDS011;44771;49.982;8.560;2023-03-01T16:14:18;22.52;;;20.20;;
58982;SDS011;44771;49.982;8.560;2023-03-01T16:19:21;30.90;;;19.12;;
58982;SDS011;44771;49.982;8.560;2023-03-01T16:24:23;26.45;;;19.98;;
58982;SDS011;44771;49.982;8.560;2023-03-01T16:29:25;20.85;;;18.65;;
58982;SDS011;44771;49.982;8.560;2023-03-01T16:34:28;20.27;;;17.73;;
58982;SDS011;44771;49.982;8.560;2023-03-01T16:39:30;25.27;;;19.52;;
58982;SDS011;44771;49.982;8.560;2023-03-01T16:44:32;28.80;;;20.02;;
58982;SDS011;44771;49.982;8.560;2023-03-01T16:49:38;27.98;;;20.23;;
58982;SDS011;44771;49.982;8.560;2023-03-01T16:54:40;30.80;;;21.48;;
58982;SDS011;44771;49.982;8.560;2023-03-01T16:59:41;24.60;;;20.80;;
58982;SDS011;44771;49.982;8.560;2023-03-01T17:04:44;23.17;;;19.92;;
58982;SDS011;44771;49.982;8.560;2023-03-01T17:09:46;27.37;;;21.45;;
58982;SDS011;44771;49.982;8.560;2023-03-01T17:14:48;23.38;;;20.15;;
58982;SDS011;44771;49.982;8.560;2023-03-01T17:19:52;31.23;;;21.48;;
58982;SDS011;44771;49.982;8.560;2023-03-01T17:24:54;26.85;;;21.48;;
58982;SDS011;44771;49.982;8.560;2023-03-01T17:29:55;27.90;;;19.92;;
58982;SDS011;44771;49.982;8.560;2023-03-01T17:34:59;25.98;;;20.88;;
58982;SDS011;44771;49.982;8.560;2023-03-01T17:40:01;30.98;;;21.42;;
58982;SDS011;44771;49.982;8.560;2023-03-01T17:45:03;26.83;;;21.35;;
58982;SDS011;44771;49.982;8.560;2023-03-01T17:50:08;25.88;;;20.30;;
58982;SDS011;44771;49.982;8.560;2023-03-01T17:55:11;28.62;;;21.80;;
58982;SDS011;44771;49.982;8.560;2023-03-01T18:00:13;24.25;;;20.90;;
58982;SDS011;44771;49.982;8.560;2023-03-01T18:05:18;31.85;;;21.95;;
58982;SDS011;44771;49.982;8.560;2023-03-01T18:10:20;26.62;;;21.62;;
58982;SDS011;44771;49.982;8.560;2023-03-01T18:15:22;35.40;;;22.27;;
58982;SDS011;44771;49.982;8.560;2023-03-01T18:20:26;24.08;;;20.83;;
58982;SDS011;44771;49.982;8.560;2023-03-01T18:25:28;25.03;;;22.43;;
58982;SDS011;44771;49.982;8.560;2023-03-01T18:30:41;31.62;;;22.58;;
58982;SDS011;44771;49.982;8.560;2023-03-01T18:35:45;28.85;;;21.00;;
58982;SDS011;44771;49.982;8.560;2023-03-01T18:40:47;32.15;;;22.48;;
58982;SDS011;44771;49.982;8.560;2023-03-01T18:45:54;25.27;;;21.67;;
58982;SDS011;44771;49.982;8.560;2023-03-01T18:51:14;29.45;;;20.02;;
58982;SDS011;44771;49.982;8.560;2023-03-01T18:56:17;32.42;;;24.20;;
58982;SDS011;44771;49.982;8.560;2023-03-01T19:01:20;32.63;;;22.15;;
58982;SDS011;44771;49.982;8.560;2023-03-01T19:06:26;31.17;;;24.03;;
58982;SDS011;44771;49.982;8.560;2023-03-01T19:17:47;27.35;;;22.80;;
58982;SDS011;44771;49.982;8.560;2023-03-01T19:23:07;27.58;;;22.27;;
58982;SDS011;44771;49.982;8.560;2023-03-01T19:28:12;25.62;;;21.62;;
58982;SDS011;44771;49.982;8.560;2023-03-01T19:33:14;33.22;;;22.75;;
58982;SDS011;44771;49.982;8.560;2023-03-01T19:38:17;28.80;;;22.35;;
58982;SDS011;44771;49.982;8.560;2023-03-01T19:43:45;30.42;;;21.33;;
58982;SDS011;44771;49.982;8.560;2023-03-01T19:48:50;29.80;;;21.40;;
58982;SDS011;44771;49.982;8.560;2023-03-01T19:53:54;26.87;;;22.15;;
58982;SDS011;44771;49.982;8.560;2023-03-01T19:58:56;27.65;;;20.85;;
58982;SDS011;44771;49.982;8.560;2023-03-01T20:04:01;28.45;;;21.87;;
58982;SDS011;44771;49.982;8.560;2023-03-01T20:09:05;28.50;;;22.52;;
58982;SDS011;44771;49.982;8.560;2023-03-01T20:14:21;32.92;;;22.48;;
58982;SDS011;44771;49.982;8.560;2023-03-01T20:19:24;33.05;;;23.05;;
58982;SDS011;44771;49.982;8.560;2023-03-01T20:24:27;28.50;;;23.25;;
58982;SDS011;44771;49.982;8.560;2023-03-01T20:29:29;30.40;;;22.23;;
58982;SDS011;44771;49.982;8.560;2023-03-01T20:34:32;29.50;;;21.35;;
58982;SDS011;44771;49.982;8.560;2023-03-01T20:45:28;31.65;;;23.42;;
58982;SDS011;44771;49.982;8.560;2023-03-01T20:56:17;31.95;;;23.38;;
58982;SDS011;44771;49.982;8.560;2023-03-01T21:01:41;32.65;;;24.33;;
58982;SDS011;44771;49.982;8.560;2023-03-01T21:07:20;31.67;;;24.05;;
58982;SDS011;44771;49.982;8.560;2023-03-01T21:12:53;28.05;;;21.52;;
58982;SDS011;44771;49.982;8.560;2023-03-01T21:18:39;34.15;;;23.67;;
58982;SDS011;44771;49.982;8.560;2023-03-01T21:30:10;32.27;;;23.47;;
58982;SDS011;44771;49.982;8.560;2023-03-01T21:35:57;36.72;;;24.83;;
58982;SDS011;44771;49.982;8.560;2023-03-01T21:40:58;38.65;;;23.98;;
58982;SDS011;44771;49.982;8.560;2023-03-01T21:51:32;33.80;;;23.70;;
58982;SDS011;44771;49.982;8.560;2023-03-01T21:56:34;32.97;;;22.80;;
58982;SDS011;44771;49.982;8.560;2023-03-01T22:01:36;34.13;;;24.00;;
58982;SDS011;44771;49.982;8.560;2023-03-01T22:06:40;30.85;;;22.52;;
58982;SDS011;44771;49.982;8.560;2023-03-01T22:16:46;34.20;;;25.70;;
58982;SDS011;44771;49.982;8.560;2023-03-01T22:21:50;27.40;;;22.23;;
58982;SDS011;44771;49.982;8.560;2023-03-01T22:26:53;30.52;;;23.52;;
58982;SDS011;44771;49.982;8.560;2023-03-01T22:31:55;35.42;;;23.15;;
58982;SDS011;44771;49.982;8.560;2023-03-01T22:36:59;29.80;;;23.00;;
58982;SDS011;44771;49.982;8.560;2023-03-01T22:42:01;30.77;;;22.45;;
58982;SDS011;44771;49.982;8.560;2023-03-01T22:47:03;31.02;;;23.00;;
58982;SDS011;44771;49.982;8.560;2023-03-01T22:52:06;35.63;;;23.30;;
58982;SDS011;44771;49.982;8.560;2023-03-01T22:57:08;31.40;;;24.63;;
58982;SDS011;44771;49.982;8.560;2023-03-01T23:02:09;31.10;;;23.23;;
58982;SDS011;44771;49.982;8.560;2023-03-01T23:07:13;39.17;;;24.95;;
58982;SDS011;44771;49.982;8.560;2023-03-01T23:12:14;33.10;;;24.08;;
58982;SDS011;44771;49.982;8.560;2023-03-01T23:17:16;34.28;;;23.70;;
58982;SDS011;44771;49.982;8.560;2023-03-01T23:22:19;34.28;;;23.35;;
58982;SDS011;44771;49.982;8.560;2023-03-01T23:27:21;29.67;;;23.77;;
58982;SDS011;44771;49.982;8.560;2023-03-01T23:32:23;31.42;;;23.48;;
58982;SDS011;44771;49.982;8.560;2023-03-01T23:37:29;31.27;;;23.77;;
58982;SDS011;44771;49.982;8.560;2023-03-01T23:42:31;32.10;;;23.25;;
58982;SDS011;44771;49.982;8.560;2023-03-01T23:47:33;35.47;;;24.45;;
58982;SDS011;44771;49.982;8.560;2023-03-01T23:52:37;33.53;;;23.02;;
58982;SDS011;44771;49.982;8.560;2023-03-01T23:57:39;30.92;;;22.95;;
